Georgetown, TX (78633)

1:05 AM CST on February 11, 2016 (GMT -0600)
Serenada West | | Change Station
CLOSE
Current Station
Personal Weather Station
Location: Georgetown, TX
Elevation: 790 ft
Nearby Weather Stations

Elev 790 ft 30.69 °N, 97.70 °W | Updated 1 second ago

Clear
Clear
54.9 °F
Feels Like 54.9 °F
N
1.6
Wind Variable Wind from South
Gusts 7.8 mph

Today
High -- | Low -- °F
--% Chance of Precip.
Yesterday
High -- | Low -- °F
Precip. -- in
Pressure 30.14 in
Visibility 10.0 miles
Clouds Clear
Dew Point 5 °F
Humidity 13%
Rainfall 0.00 in
Snow Depth Not available.
7:15 AM 6:15 PM
Waxing Crescent, 10% visible
METAR KGTU 110655Z 20007KT 10SM CLR 12/M01 A3014 RMK AO1
Pressure 30.14 in
Visibility 10.0 miles
Clouds Clear
Dew Point 5 °F
Humidity 13%
Rainfall 0.00 in
Snow Depth Not available.
7:15 AM 6:15 PM
Waxing Crescent, 10% visible
METAR KGTU 110655Z 20007KT 10SM CLR 12/M01 A3014 RMK AO1

10-Day Weather Forecast

Almanac

Astronomy

Feb. 11, 2016 Rise Set
Actual Time
Civil Twilight
Nautical Twilight
Astronomical Twilight
Moon
Length of Visible Light
Length of Day
Tomorrow will be .
, % of the Moon is Illuminated

Today's Extremes

State Highs State Lows

Community

WunderPhotos

Upload Photos

1,892,028 photos uploaded!

WunderBlog® & News

Nearby

Air Quality

  Air Quality AQ Index Pollutant
Not available.

Snow Depth

Station Depth Elevation

Earthquake Activity

City Distance Mag. Time & Date
Minimum magnitude displayed is 2.5.

Coastal Water Temperatures

Place Temperature

Stations

Nearby Weather Stations

Station Location Temp. Windchill Dew Point Humidity Wind Precip. Elev Updated Type
                   

Watches & Warnings

There are currently no watches in effect.